createdAt,value
2018-11-10T00:01:21.252Z,27.17
2018-11-10T00:03:49.447Z,26.13
2018-11-10T00:06:17.660Z,26.40
2018-11-10T00:08:45.867Z,25.90
2018-11-10T00:11:14.043Z,27.10
2018-11-10T00:13:42.212Z,23.87
2018-11-10T00:16:10.376Z,25.50
2018-11-10T00:18:38.550Z,26.57
2018-11-10T00:21:06.715Z,26.03
2018-11-10T00:23:34.893Z,25.17
2018-11-10T00:26:03.051Z,25.47
2018-11-10T00:28:31.198Z,26.73
2018-11-10T00:30:59.373Z,24.77
2018-11-10T00:33:27.542Z,26.60
2018-11-10T00:35:55.741Z,27.70
2018-11-10T00:38:23.911Z,26.30
2018-11-10T00:40:52.084Z,26.50
2018-11-10T00:43:20.269Z,27.37
2018-11-10T00:45:48.426Z,25.43
2018-11-10T00:48:16.616Z,25.97
2018-11-10T00:50:44.791Z,24.67
2018-11-10T00:53:12.959Z,25.10
2018-11-10T00:55:41.131Z,25.10
2018-11-10T00:58:09.311Z,25.13
2018-11-10T01:00:37.474Z,23.63
2018-11-10T01:03:06.107Z,25.13
2018-11-10T01:05:34.342Z,23.93
2018-11-10T01:08:02.460Z,23.90
2018-11-10T01:10:30.623Z,23.63
2018-11-10T01:12:58.783Z,23.50
2018-11-10T01:15:26.963Z,24.77
2018-11-10T01:17:55.133Z,24.73
2018-11-10T01:20:23.307Z,23.37
2018-11-10T01:22:51.476Z,23.60
2018-11-10T01:25:19.639Z,24.00
2018-11-10T01:27:47.829Z,25.00
2018-11-10T01:30:16.803Z,21.93
2018-11-10T01:32:45.775Z,22.50
2018-11-10T01:35:14.486Z,22.93
2018-11-10T01:37:42.808Z,22.63
2018-11-10T01:40:12.276Z,22.07
2018-11-10T01:42:40.962Z,22.20
2018-11-10T01:45:11.245Z,21.60
2018-11-10T01:47:39.562Z,22.13
2018-11-10T01:50:08.550Z,20.90
2018-11-10T01:52:36.730Z,21.90
2018-11-10T01:55:05.367Z,20.83
2018-11-10T01:57:33.700Z,21.43
2018-11-10T02:00:01.883Z,21.20
2018-11-10T02:02:30.051Z,21.50
2018-11-10T02:04:58.233Z,21.30
2018-11-10T02:07:26.398Z,21.00
2018-11-10T02:09:54.567Z,21.60
2018-11-10T02:12:22.746Z,21.33
2018-11-10T02:14:50.983Z,22.50
2018-11-10T02:17:19.175Z,21.77
2018-11-10T02:19:47.359Z,21.03
2018-11-10T02:22:15.560Z,21.17
2018-11-10T02:24:43.739Z,20.77
2018-11-10T02:27:17.187Z,21.17
2018-11-10T02:29:45.363Z,19.50
2018-11-10T02:32:13.539Z,20.87
2018-11-10T02:34:41.711Z,19.50
2018-11-10T02:37:09.890Z,21.17
2018-11-10T02:39:38.048Z,19.67
2018-11-10T02:42:06.232Z,19.40
2018-11-10T02:44:34.432Z,18.80
2018-11-10T02:47:02.739Z,18.90
2018-11-10T02:49:30.910Z,18.40
2018-11-10T02:51:59.163Z,18.80
2018-11-10T02:54:27.342Z,19.30
2018-11-10T02:56:55.611Z,20.07
2018-11-10T02:59:24.191Z,20.30
2018-11-10T03:01:52.471Z,18.30
2018-11-10T03:04:20.664Z,18.57
2018-11-10T03:06:48.831Z,18.77
2018-11-10T03:09:17.008Z,18.10
2018-11-10T03:11:45.166Z,17.87
2018-11-10T03:14:13.345Z,18.00
2018-11-10T03:16:41.556Z,17.90
2018-11-10T03:19:09.797Z,17.27
2018-11-10T03:21:38.270Z,17.63
2018-11-10T03:24:06.450Z,16.67
2018-11-10T03:26:34.619Z,17.37
2018-11-10T03:29:02.811Z,16.87
2018-11-10T03:31:30.971Z,16.57
2018-11-10T03:33:59.139Z,16.00
2018-11-10T03:36:27.307Z,16.77
2018-11-10T03:38:55.479Z,16.70
2018-11-10T03:41:23.651Z,16.73
2018-11-10T03:43:51.838Z,16.47
2018-11-10T03:46:20.020Z,15.40
2018-11-10T03:48:48.342Z,15.30
2018-11-10T03:51:16.378Z,15.20
2018-11-10T03:53:44.687Z,14.97
2018-11-10T03:56:12.864Z,15.93
2018-11-10T03:58:41.063Z,15.20
2018-11-10T04:01:09.252Z,16.47
2018-11-10T04:03:37.498Z,15.93
2018-11-10T04:06:05.708Z,15.03
2018-11-10T04:08:33.880Z,15.50
2018-11-10T04:11:02.039Z,14.80
2018-11-10T04:13:30.295Z,15.80
2018-11-10T04:15:58.467Z,14.60
2018-11-10T04:18:26.639Z,15.53
2018-11-10T04:20:54.832Z,16.27
2018-11-10T04:23:23.389Z,15.17
2018-11-10T04:25:51.563Z,15.30
2018-11-10T04:28:19.799Z,15.20
2018-11-10T04:30:47.971Z,14.73
2018-11-10T04:33:16.147Z,14.93
2018-11-10T04:35:44.315Z,15.30
2018-11-10T04:38:12.520Z,15.20
2018-11-10T04:40:40.663Z,15.30
2018-11-10T04:43:08.858Z,15.10
2018-11-10T04:45:37.043Z,15.27
2018-11-10T04:48:05.412Z,15.40
2018-11-10T04:50:33.574Z,14.47
2018-11-10T04:53:01.756Z,14.90
2018-11-10T04:55:29.916Z,15.57
2018-11-10T04:57:58.089Z,15.57
2018-11-10T05:00:26.280Z,15.33
2018-11-10T05:02:54.458Z,15.37
2018-11-10T05:05:22.623Z,14.80
2018-11-10T05:07:50.778Z,15.50
2018-11-10T05:10:18.955Z,15.20
2018-11-10T05:12:47.169Z,15.20
2018-11-10T05:15:15.334Z,15.80
2018-11-10T05:17:43.503Z,16.47
2018-11-10T05:20:11.676Z,15.97
2018-11-10T05:22:39.846Z,15.53
2018-11-10T05:25:08.666Z,16.60
2018-11-10T05:27:36.840Z,16.37
2018-11-10T05:30:05.874Z,16.67
2018-11-10T05:32:34.052Z,15.83
2018-11-10T05:35:02.243Z,15.30
2018-11-10T05:37:30.411Z,16.00
2018-11-10T05:39:58.603Z,16.53
2018-11-10T05:42:26.835Z,16.70
2018-11-10T05:44:55.020Z,16.20
2018-11-10T05:47:23.184Z,16.17
2018-11-10T05:49:51.375Z,15.50
2018-11-10T05:52:19.536Z,16.10
2018-11-10T05:54:47.834Z,16.83
2018-11-10T05:57:16.118Z,16.20
2018-11-10T05:59:44.189Z,16.97
2018-11-10T06:02:12.379Z,17.87
2018-11-10T06:04:40.546Z,17.90
2018-11-10T06:07:08.714Z,16.97
2018-11-10T06:09:37.055Z,18.30
2018-11-10T06:12:05.075Z,17.67
2018-11-10T06:14:33.239Z,16.83
2018-11-10T06:17:01.408Z,18.30
2018-11-10T06:19:29.592Z,17.57
2018-11-10T06:21:57.744Z,18.00
2018-11-10T06:24:25.995Z,17.17
2018-11-10T06:26:54.219Z,17.57
2018-11-10T06:29:22.384Z,18.70
2018-11-10T06:31:50.557Z,18.27
2018-11-10T06:34:18.736Z,17.83
2018-11-10T06:36:46.904Z,16.60
2018-11-10T06:39:15.079Z,16.37
2018-11-10T06:41:43.252Z,17.20
2018-11-10T06:44:11.439Z,16.83
2018-11-10T06:46:39.672Z,17.70
2018-11-10T06:49:08.379Z,18.33
2018-11-10T06:51:36.542Z,17.23
2018-11-10T06:54:04.727Z,17.80
2018-11-10T06:56:32.906Z,17.13
2018-11-10T06:59:01.079Z,17.80
2018-11-10T07:01:29.470Z,18.40
2018-11-10T07:03:57.687Z,18.80
2018-11-10T07:06:25.892Z,17.53
2018-11-10T07:08:54.121Z,18.33
2018-11-10T07:11:22.725Z,18.07
2018-11-10T07:13:50.979Z,17.97
2018-11-10T07:16:19.210Z,18.40
2018-11-10T07:18:47.545Z,18.50
2018-11-10T07:21:15.713Z,18.50
2018-11-10T07:23:43.908Z,18.30
2018-11-10T07:26:12.129Z,19.53
2018-11-10T07:28:40.392Z,19.63
2018-11-10T07:31:08.643Z,18.80
2018-11-10T07:33:36.816Z,19.33
2018-11-10T07:36:05.163Z,18.90
2018-11-10T07:38:33.513Z,19.40
2018-11-10T07:41:01.929Z,19.70
2018-11-10T07:43:30.200Z,18.77
2018-11-10T07:45:58.442Z,19.50
2018-11-10T07:48:26.811Z,19.53
2018-11-10T07:50:55.020Z,18.67
2018-11-10T07:53:23.222Z,18.93
2018-11-10T07:55:51.421Z,19.33
2018-11-10T07:58:19.627Z,17.80
2018-11-10T08:00:48.052Z,18.73
2018-11-10T08:03:16.238Z,18.47
2018-11-10T08:05:44.516Z,17.53
2018-11-10T08:08:12.724Z,18.83
2018-11-10T08:10:40.908Z,18.13
2018-11-10T08:13:09.107Z,16.63
2018-11-10T08:15:37.316Z,17.30
2018-11-10T08:18:05.587Z,18.43
2018-11-10T08:20:33.783Z,18.70
2018-11-10T08:23:01.989Z,18.53
2018-11-10T08:25:30.188Z,19.93
2018-11-10T08:27:58.377Z,17.47
2018-11-10T08:30:26.612Z,16.97
2018-11-10T08:32:54.776Z,18.20
2018-11-10T08:35:22.966Z,18.67
2018-11-10T08:37:51.159Z,18.07
2018-11-10T08:40:19.350Z,18.73
2018-11-10T08:42:47.548Z,16.50
2018-11-10T08:45:16.173Z,17.00
2018-11-10T08:47:44.830Z,17.87
2018-11-10T08:50:14.145Z,17.70
2018-11-10T08:52:42.832Z,17.60
2018-11-10T08:55:12.237Z,17.60
2018-11-10T08:57:41.050Z,17.27
2018-11-10T09:00:10.028Z,17.23
2018-11-10T09:02:38.291Z,17.40
2018-11-10T09:05:07.377Z,17.27
2018-11-10T09:07:35.715Z,16.43
2018-11-10T09:10:03.894Z,17.07
2018-11-10T09:12:32.067Z,17.37
2018-11-10T09:15:00.260Z,15.37
2018-11-10T09:17:28.427Z,16.00
2018-11-10T09:19:56.599Z,16.50
2018-11-10T09:22:24.759Z,15.73
2018-11-10T09:24:52.938Z,15.20
2018-11-10T09:27:21.112Z,15.63
2018-11-10T09:29:49.495Z,15.27
2018-11-10T09:32:17.711Z,15.90
2018-11-10T09:34:45.874Z,14.90
2018-11-10T09:37:14.122Z,15.17
2018-11-10T09:39:42.399Z,15.73
2018-11-10T09:42:10.627Z,15.93
2018-11-10T09:44:38.740Z,15.30
2018-11-10T09:47:06.974Z,15.27
2018-11-10T09:49:35.148Z,16.13
2018-11-10T09:52:03.339Z,16.33
2018-11-10T09:54:31.520Z,15.60
2018-11-10T09:56:59.995Z,16.23
2018-11-10T09:59:28.173Z,15.67
2018-11-10T10:01:56.668Z,15.63
2018-11-10T10:04:24.557Z,15.33
2018-11-10T10:06:52.725Z,15.43
2018-11-10T10:09:20.968Z,16.70
2018-11-10T10:11:49.152Z,15.77
2018-11-10T10:14:17.308Z,14.63
2018-11-10T10:16:45.515Z,15.80
2018-11-10T10:19:13.636Z,15.50
2018-11-10T10:21:41.829Z,14.80
2018-11-10T10:24:10.218Z,15.67
2018-11-10T10:26:38.415Z,15.03
2018-11-10T10:29:06.977Z,14.07
2018-11-10T10:31:35.092Z,15.57
2018-11-10T10:34:03.397Z,15.60
2018-11-10T10:36:31.513Z,14.30
2018-11-10T10:38:59.722Z,15.43
2018-11-10T10:41:27.905Z,16.10
2018-11-10T10:43:56.087Z,15.43
2018-11-10T10:46:24.284Z,16.70
2018-11-10T10:48:52.698Z,16.67
2018-11-10T10:51:20.690Z,16.17
2018-11-10T10:53:48.935Z,16.33
2018-11-10T10:56:17.140Z,16.90
2018-11-10T10:58:45.286Z,16.23
2018-11-10T11:01:18.851Z,16.47
2018-11-10T11:03:55.167Z,17.33
2018-11-10T11:06:24.026Z,16.87
2018-11-10T11:08:52.322Z,18.27
2018-11-10T11:11:20.610Z,17.97
2018-11-10T11:13:48.843Z,17.77
2018-11-10T11:16:17.316Z,18.23
2018-11-10T11:18:45.530Z,17.07
2018-11-10T11:21:13.794Z,17.30
2018-11-10T11:23:42.082Z,17.67
2018-11-10T11:26:10.333Z,18.20
2018-11-10T11:28:38.569Z,18.93
2018-11-10T11:31:06.806Z,18.90
2018-11-10T11:33:35.015Z,19.10
2018-11-10T11:36:03.421Z,17.60
2018-11-10T11:38:31.642Z,18.10
2018-11-10T11:40:59.847Z,18.47
2018-11-10T11:43:28.019Z,18.13
2018-11-10T11:45:56.227Z,17.40
2018-11-10T11:48:24.439Z,17.70
2018-11-10T11:50:52.695Z,17.73
2018-11-10T11:53:21.226Z,17.80
2018-11-10T11:55:49.431Z,18.00
2018-11-10T11:58:17.683Z,18.50
2018-11-10T12:00:45.892Z,18.10
2018-11-10T12:03:14.111Z,17.43
2018-11-10T12:05:42.347Z,18.00
2018-11-10T12:08:10.528Z,17.90
2018-11-10T12:10:38.797Z,18.63
2018-11-10T12:13:07.071Z,17.03
2018-11-10T12:15:35.271Z,17.10
2018-11-10T12:18:03.563Z,16.70
2018-11-10T12:20:31.791Z,16.37
2018-11-10T12:23:00.023Z,16.97
2018-11-10T12:25:28.287Z,17.70
2018-11-10T12:27:56.524Z,17.67
2018-11-10T12:30:24.775Z,17.23
2018-11-10T12:32:53.054Z,17.23
2018-11-10T12:35:21.279Z,16.93
2018-11-10T12:37:49.475Z,18.03
2018-11-10T12:40:17.695Z,16.20
2018-11-10T12:42:45.938Z,17.60
2018-11-10T12:45:14.610Z,16.23
2018-11-10T12:47:43.516Z,15.97
2018-11-10T12:50:12.957Z,15.40
2018-11-10T12:52:42.297Z,15.47
2018-11-10T12:55:11.697Z,15.43
2018-11-10T12:57:40.455Z,15.67
2018-11-10T13:00:09.742Z,16.10
2018-11-10T13:02:37.950Z,15.60
2018-11-10T13:05:06.827Z,15.90
2018-11-10T13:07:35.019Z,15.60
2018-11-10T13:10:04.062Z,15.03
2018-11-10T13:12:32.376Z,15.20
2018-11-10T13:15:00.491Z,15.60
2018-11-10T13:17:28.856Z,15.50
2018-11-10T13:19:56.892Z,15.47
2018-11-10T13:22:25.068Z,16.93
2018-11-10T13:24:53.315Z,15.90
2018-11-10T13:27:21.516Z,15.47
2018-11-10T13:29:49.836Z,15.77
2018-11-10T13:32:18.012Z,15.77
2018-11-10T13:34:46.204Z,15.70
2018-11-10T13:37:14.402Z,16.33
2018-11-10T13:39:42.583Z,15.60
2018-11-10T13:42:10.796Z,14.90
2018-11-10T13:44:38.946Z,15.13
2018-11-10T13:47:07.120Z,15.60
2018-11-10T13:49:35.283Z,15.20
2018-11-10T13:52:03.852Z,16.00
2018-11-10T13:54:31.646Z,16.20
2018-11-10T13:56:59.832Z,15.53
2018-11-10T13:59:28.070Z,15.60
2018-11-10T14:01:56.180Z,15.47
2018-11-10T14:04:24.350Z,15.97
2018-11-10T14:06:52.518Z,15.73
2018-11-10T14:09:20.704Z,16.10
2018-11-10T14:11:48.929Z,16.60
2018-11-10T14:14:17.237Z,16.00
2018-11-10T14:16:45.423Z,15.93
2018-11-10T14:19:13.603Z,16.97
2018-11-10T14:21:41.777Z,17.50
2018-11-10T14:24:09.975Z,16.10
2018-11-10T14:26:38.165Z,16.80
2018-11-10T14:29:06.991Z,16.73
2018-11-10T14:31:36.047Z,16.83
2018-11-10T14:34:04.251Z,17.40
2018-11-10T14:36:32.435Z,15.90
2018-11-10T14:39:01.015Z,15.70
2018-11-10T14:41:29.230Z,15.80
2018-11-10T14:43:57.433Z,15.93
2018-11-10T14:46:25.579Z,16.03
2018-11-10T14:48:53.761Z,15.93
2018-11-10T14:51:21.931Z,15.33
2018-11-10T14:53:50.094Z,15.80
2018-11-10T14:56:18.267Z,15.90
2018-11-10T14:58:46.508Z,15.63
2018-11-10T15:01:14.711Z,15.33
2018-11-10T15:03:42.876Z,16.30
2018-11-10T15:06:11.047Z,16.70
2018-11-10T15:08:39.262Z,15.97
2018-11-10T15:11:08.378Z,15.50
2018-11-10T15:13:36.575Z,15.67
2018-11-10T15:16:04.861Z,14.97
2018-11-10T15:18:33.036Z,15.17
2018-11-10T15:21:01.210Z,14.40
2018-11-10T15:23:29.840Z,15.03
2018-11-10T15:25:58.094Z,16.53
2018-11-10T15:28:26.320Z,15.50
2018-11-10T15:30:54.495Z,15.70
2018-11-10T15:33:22.723Z,15.30
2018-11-10T15:35:50.927Z,14.70
2018-11-10T15:38:19.399Z,13.30
2018-11-10T15:40:47.644Z,13.30
2018-11-10T15:43:15.855Z,13.23
2018-11-10T15:45:44.039Z,12.90
2018-11-10T15:48:12.236Z,12.70
2018-11-10T15:50:40.532Z,12.97
2018-11-10T15:53:09.403Z,13.33
2018-11-10T15:55:37.604Z,13.57
2018-11-10T15:58:10.185Z,12.70
2018-11-10T16:00:38.475Z,11.90
2018-11-10T16:03:06.728Z,12.10
2018-11-10T16:05:35.607Z,12.17
2018-11-10T16:08:04.012Z,11.80
2018-11-10T16:10:32.288Z,12.27
2018-11-10T16:13:00.595Z,12.33
2018-11-10T16:15:28.935Z,11.23
2018-11-10T16:17:57.164Z,11.13
2018-11-10T16:20:25.411Z,11.50
2018-11-10T16:22:53.739Z,11.10
2018-11-10T16:25:21.987Z,11.53
2018-11-10T16:27:50.355Z,12.10
2018-11-10T16:30:19.419Z,11.87
2018-11-10T16:32:48.236Z,11.43
2018-11-10T16:35:16.471Z,11.50
2018-11-10T16:37:44.759Z,12.00
2018-11-10T16:40:15.205Z,11.40
2018-11-10T16:42:44.594Z,11.20
2018-11-10T16:45:13.306Z,11.67
2018-11-10T16:47:41.567Z,11.30
2018-11-10T16:50:10.371Z,11.10
2018-11-10T16:52:39.079Z,10.73
2018-11-10T16:55:07.703Z,10.97
2018-11-10T16:57:36.097Z,10.80
2018-11-10T17:00:04.843Z,10.80
2018-11-10T17:02:33.068Z,11.10
2018-11-10T17:05:01.329Z,10.80
2018-11-10T17:07:29.542Z,11.13
2018-11-10T17:09:57.764Z,11.10
2018-11-10T17:12:25.942Z,11.00
2018-11-10T17:14:54.159Z,10.90
2018-11-10T17:17:22.398Z,10.67
2018-11-10T17:19:50.634Z,11.10
2018-11-10T17:22:20.636Z,11.00
2018-11-10T17:24:48.852Z,11.40
2018-11-10T17:27:17.077Z,11.27
2018-11-10T17:29:45.311Z,11.70
2018-11-10T17:32:13.611Z,11.00
2018-11-10T17:34:41.847Z,11.40
2018-11-10T17:37:10.132Z,11.00
2018-11-10T17:39:38.640Z,12.20
2018-11-10T17:42:06.846Z,11.60
2018-11-10T17:44:35.182Z,11.07
2018-11-10T17:47:03.444Z,10.40
2018-11-10T17:49:31.745Z,10.60
2018-11-10T17:52:00.042Z,11.20
2018-11-10T17:54:28.232Z,10.77
2018-11-10T17:56:56.404Z,11.40
2018-11-10T17:59:24.998Z,11.50
2018-11-10T18:01:53.442Z,11.00
2018-11-10T18:04:21.760Z,10.90
2018-11-10T18:06:50.346Z,11.00
2018-11-10T18:09:19.291Z,11.17
2018-11-10T18:11:47.836Z,10.70
2018-11-10T18:14:16.025Z,11.03
2018-11-10T18:16:44.259Z,10.70
2018-11-10T18:19:12.598Z,10.50
2018-11-10T18:21:40.995Z,10.30
2018-11-10T18:24:09.494Z,10.03
2018-11-10T18:26:37.779Z,10.40
2018-11-10T18:29:07.726Z,9.93
2018-11-10T18:31:35.994Z,10.30
2018-11-10T18:34:04.315Z,10.10
2018-11-10T18:36:32.585Z,9.80
2018-11-10T18:39:01.225Z,10.43
2018-11-10T18:41:30.304Z,10.00
2018-11-10T18:43:58.603Z,10.13
2018-11-10T18:46:26.796Z,10.00
2018-11-10T18:48:54.976Z,10.77
2018-11-10T18:51:23.141Z,11.20
2018-11-10T18:53:51.318Z,11.67
2018-11-10T18:56:19.651Z,12.40
2018-11-10T18:58:48.011Z,12.23
2018-11-10T19:01:16.209Z,12.17
2018-11-10T19:03:44.415Z,12.00
2018-11-10T19:06:12.702Z,12.73
2018-11-10T19:08:40.990Z,12.77
2018-11-10T19:11:09.191Z,12.57
2018-11-10T19:13:37.404Z,13.40
2018-11-10T19:16:05.579Z,13.80
2018-11-10T19:18:33.757Z,14.10
2018-11-10T19:21:01.971Z,14.00
2018-11-10T19:23:30.123Z,14.77
2018-11-10T19:25:58.303Z,14.63
2018-11-10T19:28:27.486Z,14.53
2018-11-10T19:30:55.680Z,16.20
2018-11-10T19:33:23.875Z,16.70
2018-11-10T19:35:52.054Z,16.60
2018-11-10T19:38:20.244Z,17.33
2018-11-10T19:40:48.420Z,16.00
2018-11-10T19:43:16.599Z,18.20
2018-11-10T19:45:44.774Z,17.73
2018-11-10T19:48:12.951Z,17.70
2018-11-10T19:50:41.134Z,17.57
2018-11-10T19:53:09.295Z,17.47
2018-11-10T19:55:37.460Z,17.70
2018-11-10T19:58:05.867Z,17.77
2018-11-10T20:00:34.118Z,18.40
2018-11-10T20:03:02.253Z,17.83
2018-11-10T20:05:30.452Z,18.20
2018-11-10T20:07:58.641Z,19.57
2018-11-10T20:10:26.895Z,18.17
2018-11-10T20:12:55.143Z,19.13
2018-11-10T20:15:24.272Z,18.00
2018-11-10T20:17:52.532Z,18.57
2018-11-10T20:20:20.845Z,17.90
2018-11-10T20:22:49.179Z,18.10
2018-11-10T20:25:18.804Z,17.10
2018-11-10T20:27:47.019Z,19.27
2018-11-10T20:30:17.691Z,19.37
2018-11-10T20:32:46.265Z,18.63
2018-11-10T20:35:14.807Z,18.40
2018-11-10T20:37:43.691Z,18.80
2018-11-10T20:40:13.207Z,18.27
2018-11-10T20:42:41.932Z,18.97
2018-11-10T20:45:14.354Z,18.20
2018-11-10T20:47:42.750Z,18.73
2018-11-10T20:50:11.662Z,19.83
2018-11-10T20:52:40.135Z,18.47
2018-11-10T20:55:09.370Z,19.00
2018-11-10T20:57:38.130Z,18.00
2018-11-10T21:00:09.880Z,18.20
2018-11-10T21:02:38.700Z,18.17
2018-11-10T21:05:09.152Z,19.20
2018-11-10T21:07:37.409Z,17.37
2018-11-10T21:10:07.448Z,17.60
2018-11-10T21:12:39.748Z,17.50
2018-11-10T21:15:08.462Z,17.83
2018-11-10T21:17:36.931Z,17.30
2018-11-10T21:20:05.782Z,18.97
2018-11-10T21:22:34.082Z,18.13
2018-11-10T21:25:02.803Z,17.80
2018-11-10T21:27:31.092Z,18.23
2018-11-10T21:29:59.519Z,18.97
2018-11-10T21:32:27.702Z,20.10
2018-11-10T21:34:55.862Z,19.60
2018-11-10T21:37:24.044Z,19.90
2018-11-10T21:39:52.215Z,19.40
2018-11-10T21:42:20.404Z,18.57
2018-11-10T21:44:48.575Z,18.13
2018-11-10T21:47:16.743Z,17.47
2018-11-10T21:49:44.936Z,16.00
2018-11-10T21:52:13.082Z,16.30
2018-11-10T21:54:41.278Z,16.03
2018-11-10T21:57:09.439Z,16.60
2018-11-10T21:59:37.618Z,16.80
2018-11-10T22:02:05.995Z,17.00
2018-11-10T22:04:34.154Z,17.40
2018-11-10T22:07:02.338Z,18.03
2018-11-10T22:09:30.652Z,16.87
2018-11-10T22:11:58.680Z,16.27
2018-11-10T22:14:26.855Z,16.20
2018-11-10T22:16:55.060Z,16.40
2018-11-10T22:19:23.220Z,16.10
2018-11-10T22:21:51.383Z,16.23
2018-11-10T22:24:19.548Z,16.50
2018-11-10T22:26:47.731Z,15.57
2018-11-10T22:29:15.896Z,15.77
2018-11-10T22:31:44.078Z,14.93
2018-11-10T22:34:12.273Z,15.60
2018-11-10T22:36:40.446Z,14.73
2018-11-10T22:39:09.795Z,15.10
2018-11-10T22:41:37.978Z,14.97
2018-11-10T22:44:06.555Z,14.50
2018-11-10T22:46:34.719Z,14.57
2018-11-10T22:49:02.883Z,14.90
2018-11-10T22:51:31.038Z,14.50
2018-11-10T22:53:59.196Z,13.90
2018-11-10T22:56:27.363Z,14.00
2018-11-10T22:58:55.526Z,13.97
2018-11-10T23:01:27.843Z,14.07
2018-11-10T23:03:56.026Z,14.77
2018-11-10T23:06:24.195Z,13.97
2018-11-10T23:08:52.384Z,13.30
2018-11-10T23:11:20.547Z,13.60
2018-11-10T23:13:48.727Z,13.53
2018-11-10T23:16:16.899Z,13.80
2018-11-10T23:18:45.107Z,13.43
2018-11-10T23:21:13.280Z,13.07
2018-11-10T23:23:41.542Z,13.50
2018-11-10T23:26:09.623Z,13.70
2018-11-10T23:28:37.803Z,13.47
2018-11-10T23:31:06.132Z,13.30
2018-11-10T23:33:34.290Z,12.50
2018-11-10T23:36:02.455Z,12.87
2018-11-10T23:38:31.330Z,12.23
2018-11-10T23:40:59.499Z,12.83
2018-11-10T23:43:27.688Z,13.33
2018-11-10T23:45:55.854Z,13.27
2018-11-10T23:48:24.054Z,14.23
2018-11-10T23:50:52.233Z,14.87
2018-11-10T23:53:20.452Z,13.60
2018-11-10T23:55:48.610Z,14.03
2018-11-10T23:58:16.799Z,13.97
